sensor_id;sensor_type;location;lat;lon;timestamp;temperature;humidity
5150;DHT22;2593;52.466;13.436;2022-09-02T00:00:21;14.60;90.00
5150;DHT22;2593;52.466;13.436;2022-09-02T00:02:48;14.70;91.10
5150;DHT22;2593;52.466;13.436;2022-09-02T00:05:16;14.70;79.70
5150;DHT22;2593;52.466;13.436;2022-09-02T00:07:42;14.70;84.20
5150;DHT22;2593;52.466;13.436;2022-09-02T00:10:08;14.70;77.20
5150;DHT22;2593;52.466;13.436;2022-09-02T00:12:33;14.70;74.50
5150;DHT22;2593;52.466;13.436;2022-09-02T00:14:59;14.80;79.20
5150;DHT22;2593;52.466;13.436;2022-09-02T00:17:24;14.80;67.40
5150;DHT22;2593;52.466;13.436;2022-09-02T00:19:50;14.80;63.50
5150;DHT22;2593;52.466;13.436;2022-09-02T00:22:16;15.00;58.10
5150;DHT22;2593;52.466;13.436;2022-09-02T00:24:42;14.90;55.60
5150;DHT22;2593;52.466;13.436;2022-09-02T00:27:07;15.00;46.60
5150;DHT22;2593;52.466;13.436;2022-09-02T00:29:33;15.00;37.40
5150;DHT22;2593;52.466;13.436;2022-09-02T00:31:58;14.90;42.70
5150;DHT22;2593;52.466;13.436;2022-09-02T00:34:24;15.00;47.00
5150;DHT22;2593;52.466;13.436;2022-09-02T00:36:50;15.00;42.70
5150;DHT22;2593;52.466;13.436;2022-09-02T00:39:16;15.00;39.50
5150;DHT22;2593;52.466;13.436;2022-09-02T00:41:42;15.00;34.80
5150;DHT22;2593;52.466;13.436;2022-09-02T00:44:12;15.00;34.00
5150;DHT22;2593;52.466;13.436;2022-09-02T00:46:38;14.90;45.20
5150;DHT22;2593;52.466;13.436;2022-09-02T00:49:11;14.80;62.70
5150;DHT22;2593;52.466;13.436;2022-09-02T00:51:43;14.80;70.30
5150;DHT22;2593;52.466;13.436;2022-09-02T00:54:12;14.90;65.00
5150;DHT22;2593;52.466;13.436;2022-09-02T00:56:39;15.00;53.40
5150;DHT22;2593;52.466;13.436;2022-09-02T00:59:06;15.00;47.10
5150;DHT22;2593;52.466;13.436;2022-09-02T01:01:32;14.90;50.70
5150;DHT22;2593;52.466;13.436;2022-09-02T01:03:58;15.00;43.50
5150;DHT22;2593;52.466;13.436;2022-09-02T01:06:26;15.00;41.00
5150;DHT22;2593;52.466;13.436;2022-09-02T01:08:56;15.10;32.10
5150;DHT22;2593;52.466;13.436;2022-09-02T01:11:23;15.10;23.10
5150;DHT22;2593;52.466;13.436;2022-09-02T01:13:50;15.10;20.80
5150;DHT22;2593;52.466;13.436;2022-09-02T01:16:30;15.10;18.10
5150;DHT22;2593;52.466;13.436;2022-09-02T01:18:59;15.10;16.90
5150;DHT22;2593;52.466;13.436;2022-09-02T01:21:26;15.00;23.40
5150;DHT22;2593;52.466;13.436;2022-09-02T01:23:52;14.90;44.70
5150;DHT22;2593;52.466;13.436;2022-09-02T01:26:19;14.80;55.40
5150;DHT22;2593;52.466;13.436;2022-09-02T01:28:45;14.70;56.50
5150;DHT22;2593;52.466;13.436;2022-09-02T01:31:11;14.60;81.90
5150;DHT22;2593;52.466;13.436;2022-09-02T01:33:37;14.60;88.90
5150;DHT22;2593;52.466;13.436;2022-09-02T01:36:03;14.60;95.00
5150;DHT22;2593;52.466;13.436;2022-09-02T01:38:29;14.50;99.90
5150;DHT22;2593;52.466;13.436;2022-09-02T01:40:55;14.50;99.90
5150;DHT22;2593;52.466;13.436;2022-09-02T01:43:23;14.60;99.90
5150;DHT22;2593;52.466;13.436;2022-09-02T01:45:51;14.60;99.90
5150;DHT22;2593;52.466;13.436;2022-09-02T01:48:19;14.50;99.70
5150;DHT22;2593;52.466;13.436;2022-09-02T01:50:49;14.50;99.90
5150;DHT22;2593;52.466;13.436;2022-09-02T01:53:15;14.40;99.90
5150;DHT22;2593;52.466;13.436;2022-09-02T01:55:42;14.40;99.90
5150;DHT22;2593;52.466;13.436;2022-09-02T01:58:08;14.40;99.90
5150;DHT22;2593;52.466;13.436;2022-09-02T02:00:33;14.30;99.90
5150;DHT22;2593;52.466;13.436;2022-09-02T02:02:59;14.20;99.90
5150;DHT22;2593;52.466;13.436;2022-09-02T02:05:25;14.20;99.90
5150;DHT22;2593;52.466;13.436;2022-09-02T02:07:51;14.20;99.90
5150;DHT22;2593;52.466;13.436;2022-09-02T02:10:18;14.20;99.90
5150;DHT22;2593;52.466;13.436;2022-09-02T02:12:44;14.20;99.90
5150;DHT22;2593;52.466;13.436;2022-09-02T02:15:13;14.20;99.90
5150;DHT22;2593;52.466;13.436;2022-09-02T02:17:39;14.20;99.90
5150;DHT22;2593;52.466;13.436;2022-09-02T02:20:07;14.20;99.90
5150;DHT22;2593;52.466;13.436;2022-09-02T02:22:33;14.20;99.90
5150;DHT22;2593;52.466;13.436;2022-09-02T02:24:59;14.10;99.90
5150;DHT22;2593;52.466;13.436;2022-09-02T02:27:25;14.20;99.90
5150;DHT22;2593;52.466;13.436;2022-09-02T02:29:50;14.10;99.90
5150;DHT22;2593;52.466;13.436;2022-09-02T02:32:17;14.10;99.90
5150;DHT22;2593;52.466;13.436;2022-09-02T02:34:44;14.00;99.90
5150;DHT22;2593;52.466;13.436;2022-09-02T02:37:10;14.00;99.90
5150;DHT22;2593;52.466;13.436;2022-09-02T02:39:39;14.10;99.90
5150;DHT22;2593;52.466;13.436;2022-09-02T02:42:05;14.00;99.90
5150;DHT22;2593;52.466;13.436;2022-09-02T02:44:31;14.00;99.90
5150;DHT22;2593;52.466;13.436;2022-09-02T02:46:57;14.00;99.90
5150;DHT22;2593;52.466;13.436;2022-09-02T02:49:22;14.00;99.90
5150;DHT22;2593;52.466;13.436;2022-09-02T02:51:48;14.00;99.90
5150;DHT22;2593;52.466;13.436;2022-09-02T02:54:14;14.00;99.90
5150;DHT22;2593;52.466;13.436;2022-09-02T02:56:40;13.90;99.90
5150;DHT22;2593;52.466;13.436;2022-09-02T02:59:06;14.00;99.90
5150;DHT22;2593;52.466;13.436;2022-09-02T03:01:32;13.90;99.90
5150;DHT22;2593;52.466;13.436;2022-09-02T03:03:58;13.80;99.90
5150;DHT22;2593;52.466;13.436;2022-09-02T03:06:24;13.80;99.90
5150;DHT22;2593;52.466;13.436;2022-09-02T03:08:50;13.80;99.90
5150;DHT22;2593;52.466;13.436;2022-09-02T03:11:18;13.70;99.90
5150;DHT22;2593;52.466;13.436;2022-09-02T03:13:47;13.70;99.90
5150;DHT22;2593;52.466;13.436;2022-09-02T03:16:13;13.80;99.90
5150;DHT22;2593;52.466;13.436;2022-09-02T03:18:39;13.70;99.90
5150;DHT22;2593;52.466;13.436;2022-09-02T03:21:08;13.70;99.90
5150;DHT22;2593;52.466;13.436;2022-09-02T03:23:34;13.70;99.90
5150;DHT22;2593;52.466;13.436;2022-09-02T03:26:00;13.70;99.90
5150;DHT22;2593;52.466;13.436;2022-09-02T03:28:25;13.70;99.90
5150;DHT22;2593;52.466;13.436;2022-09-02T03:30:51;13.70;99.90
5150;DHT22;2593;52.466;13.436;2022-09-02T03:33:17;13.70;99.90
5150;DHT22;2593;52.466;13.436;2022-09-02T03:35:43;13.60;99.90
5150;DHT22;2593;52.466;13.436;2022-09-02T03:38:10;13.60;99.90
5150;DHT22;2593;52.466;13.436;2022-09-02T03:40:37;13.60;99.90
5150;DHT22;2593;52.466;13.436;2022-09-02T03:43:02;13.60;99.90
5150;DHT22;2593;52.466;13.436;2022-09-02T03:45:28;13.60;99.90
5150;DHT22;2593;52.466;13.436;2022-09-02T03:47:54;13.60;99.90
5150;DHT22;2593;52.466;13.436;2022-09-02T03:50:23;13.60;99.90
5150;DHT22;2593;52.466;13.436;2022-09-02T03:52:49;13.60;99.90
5150;DHT22;2593;52.466;13.436;2022-09-02T03:55:15;13.60;99.90
5150;DHT22;2593;52.466;13.436;2022-09-02T03:57:41;13.60;99.90
5150;DHT22;2593;52.466;13.436;2022-09-02T04:00:08;13.60;99.90
5150;DHT22;2593;52.466;13.436;2022-09-02T04:02:38;13.50;99.90
5150;DHT22;2593;52.466;13.436;2022-09-02T04:05:04;13.40;99.90
5150;DHT22;2593;52.466;13.436;2022-09-02T04:07:30;13.40;99.90
5150;DHT22;2593;52.466;13.436;2022-09-02T04:09:56;13.30;1.00
5150;DHT22;2593;52.466;13.436;2022-09-02T04:12:22;13.20;1.00
5150;DHT22;2593;52.466;13.436;2022-09-02T04:14:47;13.20;1.00
5150;DHT22;2593;52.466;13.436;2022-09-02T04:17:13;13.20;1.00
5150;DHT22;2593;52.466;13.436;2022-09-02T04:19:39;13.30;1.00
5150;DHT22;2593;52.466;13.436;2022-09-02T04:22:06;13.40;1.00
5150;DHT22;2593;52.466;13.436;2022-09-02T04:24:32;13.30;99.90
5150;DHT22;2593;52.466;13.436;2022-09-02T04:26:58;13.40;99.90
5150;DHT22;2593;52.466;13.436;2022-09-02T04:29:24;13.40;99.90
5150;DHT22;2593;52.466;13.436;2022-09-02T04:31:51;13.40;99.90
5150;DHT22;2593;52.466;13.436;2022-09-02T04:34:17;13.50;99.90
5150;DHT22;2593;52.466;13.436;2022-09-02T04:36:43;13.50;99.90
5150;DHT22;2593;52.466;13.436;2022-09-02T04:39:08;13.60;99.90
5150;DHT22;2593;52.466;13.436;2022-09-02T04:41:34;13.60;99.90
5150;DHT22;2593;52.466;13.436;2022-09-02T04:44:01;13.50;99.90
5150;DHT22;2593;52.466;13.436;2022-09-02T04:46:27;13.60;99.90
5150;DHT22;2593;52.466;13.436;2022-09-02T04:48:53;13.50;99.90
5150;DHT22;2593;52.466;13.436;2022-09-02T04:51:21;13.60;99.90
5150;DHT22;2593;52.466;13.436;2022-09-02T04:53:48;13.60;99.90
5150;DHT22;2593;52.466;13.436;2022-09-02T04:56:18;13.60;99.90
5150;DHT22;2593;52.466;13.436;2022-09-02T04:58:45;13.60;99.90
5150;DHT22;2593;52.466;13.436;2022-09-02T05:01:15;13.60;99.90
5150;DHT22;2593;52.466;13.436;2022-09-02T05:03:43;13.60;99.90
5150;DHT22;2593;52.466;13.436;2022-09-02T05:06:11;13.60;99.90
5150;DHT22;2593;52.466;13.436;2022-09-02T05:08:37;13.70;99.90
5150;DHT22;2593;52.466;13.436;2022-09-02T05:11:08;13.80;99.90
5150;DHT22;2593;52.466;13.436;2022-09-02T05:13:34;13.80;99.90
5150;DHT22;2593;52.466;13.436;2022-09-02T05:16:00;13.90;99.90
5150;DHT22;2593;52.466;13.436;2022-09-02T05:18:27;14.00;99.90
5150;DHT22;2593;52.466;13.436;2022-09-02T05:20:54;13.90;99.90
5150;DHT22;2593;52.466;13.436;2022-09-02T05:23:20;13.90;99.90
5150;DHT22;2593;52.466;13.436;2022-09-02T05:25:46;13.80;99.90
5150;DHT22;2593;52.466;13.436;2022-09-02T05:28:12;13.80;99.90
5150;DHT22;2593;52.466;13.436;2022-09-02T05:30:40;13.70;99.90
5150;DHT22;2593;52.466;13.436;2022-09-02T05:33:06;13.70;99.90
5150;DHT22;2593;52.466;13.436;2022-09-02T05:35:32;13.70;99.90
5150;DHT22;2593;52.466;13.436;2022-09-02T05:37:58;13.80;99.90
5150;DHT22;2593;52.466;13.436;2022-09-02T05:40:24;13.90;99.90
5150;DHT22;2593;52.466;13.436;2022-09-02T05:42:51;14.10;99.90
5150;DHT22;2593;52.466;13.436;2022-09-02T05:45:16;14.10;99.90
5150;DHT22;2593;52.466;13.436;2022-09-02T05:47:42;14.10;99.90
5150;DHT22;2593;52.466;13.436;2022-09-02T05:50:08;14.20;99.90
5150;DHT22;2593;52.466;13.436;2022-09-02T05:52:34;14.20;99.90
5150;DHT22;2593;52.466;13.436;2022-09-02T05:55:00;14.20;99.90
5150;DHT22;2593;52.466;13.436;2022-09-02T05:57:27;14.20;99.90
5150;DHT22;2593;52.466;13.436;2022-09-02T05:59:52;14.30;99.90
5150;DHT22;2593;52.466;13.436;2022-09-02T06:02:23;14.20;99.90
5150;DHT22;2593;52.466;13.436;2022-09-02T06:04:50;14.10;99.90
5150;DHT22;2593;52.466;13.436;2022-09-02T06:07:20;14.20;99.90
5150;DHT22;2593;52.466;13.436;2022-09-02T06:09:46;14.10;99.90
5150;DHT22;2593;52.466;13.436;2022-09-02T06:12:13;14.20;99.90
5150;DHT22;2593;52.466;13.436;2022-09-02T06:14:40;14.30;99.90
5150;DHT22;2593;52.466;13.436;2022-09-02T06:17:08;14.40;99.90
5150;DHT22;2593;52.466;13.436;2022-09-02T06:19:34;14.40;99.90
5150;DHT22;2593;52.466;13.436;2022-09-02T06:22:01;14.50;99.90
5150;DHT22;2593;52.466;13.436;2022-09-02T06:24:28;14.60;99.90
5150;DHT22;2593;52.466;13.436;2022-09-02T06:26:54;14.60;99.90
5150;DHT22;2593;52.466;13.436;2022-09-02T06:29:23;14.70;99.90
5150;DHT22;2593;52.466;13.436;2022-09-02T06:31:50;14.70;99.90
5150;DHT22;2593;52.466;13.436;2022-09-02T06:34:18;14.60;99.90
5150;DHT22;2593;52.466;13.436;2022-09-02T06:36:46;14.80;99.90
5150;DHT22;2593;52.466;13.436;2022-09-02T06:39:15;14.80;99.90
5150;DHT22;2593;52.466;13.436;2022-09-02T06:41:42;14.80;99.90
5150;DHT22;2593;52.466;13.436;2022-09-02T06:44:09;15.00;99.90
5150;DHT22;2593;52.466;13.436;2022-09-02T06:46:42;15.60;99.90
5150;DHT22;2593;52.466;13.436;2022-09-02T06:49:08;15.90;62.10
5150;DHT22;2593;52.466;13.436;2022-09-02T06:51:37;16.20;28.00
5150;DHT22;2593;52.466;13.436;2022-09-02T06:54:04;16.50;1.00
5150;DHT22;2593;52.466;13.436;2022-09-02T06:56:31;16.90;1.00
5150;DHT22;2593;52.466;13.436;2022-09-02T06:58:57;17.00;1.00
5150;DHT22;2593;52.466;13.436;2022-09-02T07:01:27;17.00;1.00
5150;DHT22;2593;52.466;13.436;2022-09-02T07:03:53;16.70;1.00
5150;DHT22;2593;52.466;13.436;2022-09-02T07:06:42;16.40;1.00
5150;DHT22;2593;52.466;13.436;2022-09-02T07:09:09;16.10;1.00
5150;DHT22;2593;52.466;13.436;2022-09-02T07:11:36;15.90;8.90
5150;DHT22;2593;52.466;13.436;2022-09-02T07:14:02;15.90;30.20
5150;DHT22;2593;52.466;13.436;2022-09-02T07:16:29;16.10;36.80
5150;DHT22;2593;52.466;13.436;2022-09-02T07:18:55;16.30;22.20
5150;DHT22;2593;52.466;13.436;2022-09-02T07:21:22;16.50;3.50
5150;DHT22;2593;52.466;13.436;2022-09-02T07:23:47;16.70;1.00
5150;DHT22;2593;52.466;13.436;2022-09-02T07:26:14;17.00;1.00
5150;DHT22;2593;52.466;13.436;2022-09-02T07:28:41;17.30;1.00
5150;DHT22;2593;52.466;13.436;2022-09-02T07:31:11;17.40;1.00
5150;DHT22;2593;52.466;13.436;2022-09-02T07:33:37;17.60;1.00
5150;DHT22;2593;52.466;13.436;2022-09-02T07:36:07;18.00;1.00
5150;DHT22;2593;52.466;13.436;2022-09-02T07:38:35;18.40;1.00
5150;DHT22;2593;52.466;13.436;2022-09-02T07:41:01;19.20;1.00
5150;DHT22;2593;52.466;13.436;2022-09-02T07:43:27;19.90;1.00
5150;DHT22;2593;52.466;13.436;2022-09-02T07:45:54;19.90;1.00
5150;DHT22;2593;52.466;13.436;2022-09-02T07:48:21;20.80;1.00
5150;DHT22;2593;52.466;13.436;2022-09-02T07:50:47;21.20;1.00
5150;DHT22;2593;52.466;13.436;2022-09-02T07:53:13;21.60;1.00
5150;DHT22;2593;52.466;13.436;2022-09-02T07:55:42;22.70;1.00
5150;DHT22;2593;52.466;13.436;2022-09-02T07:58:08;23.00;1.00
5150;DHT22;2593;52.466;13.436;2022-09-02T08:00:34;23.40;1.00
5150;DHT22;2593;52.466;13.436;2022-09-02T08:03:01;23.80;1.00
5150;DHT22;2593;52.466;13.436;2022-09-02T08:05:27;23.40;1.00
5150;DHT22;2593;52.466;13.436;2022-09-02T08:07:53;22.40;1.00
5150;DHT22;2593;52.466;13.436;2022-09-02T08:10:19;22.50;1.00
5150;DHT22;2593;52.466;13.436;2022-09-02T08:12:45;23.20;1.00
5150;DHT22;2593;52.466;13.436;2022-09-02T08:15:13;24.50;1.00
5150;DHT22;2593;52.466;13.436;2022-09-02T08:17:39;25.20;1.00
5150;DHT22;2593;52.466;13.436;2022-09-02T08:20:10;26.90;1.00
5150;DHT22;2593;52.466;13.436;2022-09-02T08:22:37;27.60;1.00
5150;DHT22;2593;52.466;13.436;2022-09-02T08:25:03;28.90;1.00
5150;DHT22;2593;52.466;13.436;2022-09-02T08:27:29;30.20;1.00
5150;DHT22;2593;52.466;13.436;2022-09-02T08:29:55;30.10;1.00
5150;DHT22;2593;52.466;13.436;2022-09-02T08:32:21;31.30;1.00
5150;DHT22;2593;52.466;13.436;2022-09-02T08:34:46;32.00;1.00
5150;DHT22;2593;52.466;13.436;2022-09-02T08:37:12;32.00;1.00
5150;DHT22;2593;52.466;13.436;2022-09-02T08:39:38;32.80;1.00
5150;DHT22;2593;52.466;13.436;2022-09-02T08:44:32;35.00;1.00
5150;DHT22;2593;52.466;13.436;2022-09-02T08:47:01;34.00;1.00
5150;DHT22;2593;52.466;13.436;2022-09-02T08:49:42;34.40;1.00
5150;DHT22;2593;52.466;13.436;2022-09-02T08:52:15;32.70;1.00
5150;DHT22;2593;52.466;13.436;2022-09-02T08:54:53;32.90;1.00
5150;DHT22;2593;52.466;13.436;2022-09-02T08:57:23;33.20;1.00
5150;DHT22;2593;52.466;13.436;2022-09-02T08:59:54;33.40;1.00
5150;DHT22;2593;52.466;13.436;2022-09-02T09:16:43;33.20;1.00
5150;DHT22;2593;52.466;13.436;2022-09-02T09:21:40;32.40;1.00
5150;DHT22;2593;52.466;13.436;2022-09-02T09:24:23;32.30;1.00
5150;DHT22;2593;52.466;13.436;2022-09-02T09:26:52;32.60;1.00
5150;DHT22;2593;52.466;13.436;2022-09-02T09:29:18;32.20;1.00
5150;DHT22;2593;52.466;13.436;2022-09-02T09:31:48;30.30;1.00
5150;DHT22;2593;52.466;13.436;2022-09-02T09:34:17;30.70;1.00
5150;DHT22;2593;52.466;13.436;2022-09-02T09:39:28;31.20;1.00
5150;DHT22;2593;52.466;13.436;2022-09-02T09:42:14;31.00;1.00
5150;DHT22;2593;52.466;13.436;2022-09-02T09:44:46;30.60;1.00
5150;DHT22;2593;52.466;13.436;2022-09-02T09:47:24;30.60;1.00
5150;DHT22;2593;52.466;13.436;2022-09-02T09:52:35;31.40;1.00
5150;DHT22;2593;52.466;13.436;2022-09-02T09:55:10;30.80;1.00
5150;DHT22;2593;52.466;13.436;2022-09-02T09:57:38;30.20;1.00
5150;DHT22;2593;52.466;13.436;2022-09-02T10:00:40;29.50;1.00
5150;DHT22;2593;52.466;13.436;2022-09-02T10:03:05;29.20;1.00
5150;DHT22;2593;52.466;13.436;2022-09-02T10:05:37;28.90;1.00
5150;DHT22;2593;52.466;13.436;2022-09-02T10:10:39;30.80;1.00
5150;DHT22;2593;52.466;13.436;2022-09-02T10:13:20;31.40;1.00
5150;DHT22;2593;52.466;13.436;2022-09-02T10:18:55;31.90;1.00
5150;DHT22;2593;52.466;13.436;2022-09-02T10:21:46;32.10;1.00
5150;DHT22;2593;52.466;13.436;2022-09-02T10:24:47;31.10;1.00
5150;DHT22;2593;52.466;13.436;2022-09-02T10:27:24;28.80;1.00
5150;DHT22;2593;52.466;13.436;2022-09-02T10:30:20;27.90;1.00
5150;DHT22;2593;52.466;13.436;2022-09-02T10:36:02;27.00;1.00
5150;DHT22;2593;52.466;13.436;2022-09-02T10:38:43;25.70;1.00
5150;DHT22;2593;52.466;13.436;2022-09-02T10:46:24;24.00;1.00
5150;DHT22;2593;52.466;13.436;2022-09-02T10:52:18;23.40;1.00
5150;DHT22;2593;52.466;13.436;2022-09-02T10:57:25;22.70;1.00
5150;DHT22;2593;52.466;13.436;2022-09-02T11:00:14;22.50;1.00
5150;DHT22;2593;52.466;13.436;2022-09-02T11:02:54;22.00;1.00
5150;DHT22;2593;52.466;13.436;2022-09-02T11:05:28;21.90;1.00
5150;DHT22;2593;52.466;13.436;2022-09-02T11:08:11;22.00;1.00
5150;DHT22;2593;52.466;13.436;2022-09-02T11:16:28;22.60;1.00
5150;DHT22;2593;52.466;13.436;2022-09-02T11:24:43;22.20;1.00
5150;DHT22;2593;52.466;13.436;2022-09-02T11:27:23;21.90;1.00
5150;DHT22;2593;52.466;13.436;2022-09-02T11:30:19;21.80;1.00
5150;DHT22;2593;52.466;13.436;2022-09-02T11:35:24;21.70;1.00
5150;DHT22;2593;52.466;13.436;2022-09-02T11:38:00;21.40;1.00
5150;DHT22;2593;52.466;13.436;2022-09-02T11:40:38;21.20;1.00
5150;DHT22;2593;52.466;13.436;2022-09-02T11:43:18;21.30;1.00
5150;DHT22;2593;52.466;13.436;2022-09-02T11:51:21;21.80;1.00
5150;DHT22;2593;52.466;13.436;2022-09-02T11:53:49;22.00;1.00
5150;DHT22;2593;52.466;13.436;2022-09-02T11:56:28;22.00;1.00
5150;DHT22;2593;52.466;13.436;2022-09-02T11:58:55;21.90;1.00
5150;DHT22;2593;52.466;13.436;2022-09-02T12:01:29;21.70;1.00
5150;DHT22;2593;52.466;13.436;2022-09-02T12:04:21;21.50;1.00
5150;DHT22;2593;52.466;13.436;2022-09-02T12:09:53;21.60;1.00
5150;DHT22;2593;52.466;13.436;2022-09-02T12:18:05;22.20;1.00
5150;DHT22;2593;52.466;13.436;2022-09-02T12:23:05;21.90;1.00
5150;DHT22;2593;52.466;13.436;2022-09-02T12:35:55;21.20;1.00
5150;DHT22;2593;52.466;13.436;2022-09-02T12:38:30;21.10;1.00
5150;DHT22;2593;52.466;13.436;2022-09-02T12:41:07;21.20;1.00
5150;DHT22;2593;52.466;13.436;2022-09-02T12:44:00;21.10;1.00
5150;DHT22;2593;52.466;13.436;2022-09-02T12:49:51;21.50;1.00
5150;DHT22;2593;52.466;13.436;2022-09-02T12:55:25;21.70;1.00
5150;DHT22;2593;52.466;13.436;2022-09-02T12:57:54;21.70;1.00
5150;DHT22;2593;52.466;13.436;2022-09-02T13:05:55;21.80;1.00
5150;DHT22;2593;52.466;13.436;2022-09-02T13:08:32;21.80;1.00
5150;DHT22;2593;52.466;13.436;2022-09-02T13:17:03;21.50;1.00
5150;DHT22;2593;52.466;13.436;2022-09-02T13:31:00;21.00;1.00
5150;DHT22;2593;52.466;13.436;2022-09-02T13:33:27;21.10;1.00
5150;DHT22;2593;52.466;13.436;2022-09-02T13:35:54;21.20;1.00
5150;DHT22;2593;52.466;13.436;2022-09-02T13:38:24;21.40;1.00
5150;DHT22;2593;52.466;13.436;2022-09-02T13:40:50;21.50;1.00
5150;DHT22;2593;52.466;13.436;2022-09-02T13:43:18;21.70;1.00
5150;DHT22;2593;52.466;13.436;2022-09-02T13:45:45;21.70;1.00
5150;DHT22;2593;52.466;13.436;2022-09-02T13:48:14;21.70;1.00
5150;DHT22;2593;52.466;13.436;2022-09-02T13:50:43;21.80;1.00
5150;DHT22;2593;52.466;13.436;2022-09-02T13:53:22;21.80;1.00
5150;DHT22;2593;52.466;13.436;2022-09-02T13:55:52;21.80;1.00
5150;DHT22;2593;52.466;13.436;2022-09-02T13:58:32;21.80;1.00
5150;DHT22;2593;52.466;13.436;2022-09-02T14:01:17;21.80;1.00
5150;DHT22;2593;52.466;13.436;2022-09-02T14:03:51;21.80;1.00
5150;DHT22;2593;52.466;13.436;2022-09-02T14:06:21;21.90;1.00
5150;DHT22;2593;52.466;13.436;2022-09-02T14:08:50;21.90;1.00
5150;DHT22;2593;52.466;13.436;2022-09-02T14:11:17;22.10;1.00
5150;DHT22;2593;52.466;13.436;2022-09-02T14:13:46;21.90;1.00
5150;DHT22;2593;52.466;13.436;2022-09-02T14:16:29;22.00;1.00
5150;DHT22;2593;52.466;13.436;2022-09-02T14:21:49;21.90;1.00
5150;DHT22;2593;52.466;13.436;2022-09-02T14:24:21;22.00;1.00
5150;DHT22;2593;52.466;13.436;2022-09-02T14:26:50;21.90;1.00
5150;DHT22;2593;52.466;13.436;2022-09-02T14:29:18;21.80;1.00
5150;DHT22;2593;52.466;13.436;2022-09-02T14:31:45;21.90;1.00
5150;DHT22;2593;52.466;13.436;2022-09-02T14:34:36;21.80;1.00
5150;DHT22;2593;52.466;13.436;2022-09-02T14:37:19;21.70;1.00
5150;DHT22;2593;52.466;13.436;2022-09-02T14:40:08;21.70;1.00
5150;DHT22;2593;52.466;13.436;2022-09-02T14:42:48;21.60;1.00
5150;DHT22;2593;52.466;13.436;2022-09-02T14:45:27;21.60;1.00
5150;DHT22;2593;52.466;13.436;2022-09-02T14:47:55;21.60;1.00
5150;DHT22;2593;52.466;13.436;2022-09-02T14:50:24;21.60;1.00
5150;DHT22;2593;52.466;13.436;2022-09-02T14:52:57;21.50;1.00
5150;DHT22;2593;52.466;13.436;2022-09-02T14:55:49;21.40;1.00
5150;DHT22;2593;52.466;13.436;2022-09-02T14:58:18;21.40;1.00
5150;DHT22;2593;52.466;13.436;2022-09-02T15:00:46;21.40;1.00
5150;DHT22;2593;52.466;13.436;2022-09-02T15:03:14;21.30;1.00
5150;DHT22;2593;52.466;13.436;2022-09-02T15:05:40;21.30;1.00
5150;DHT22;2593;52.466;13.436;2022-09-02T15:08:06;21.30;1.00
5150;DHT22;2593;52.466;13.436;2022-09-02T15:10:33;21.40;1.00
5150;DHT22;2593;52.466;13.436;2022-09-02T15:12:59;21.40;1.00
5150;DHT22;2593;52.466;13.436;2022-09-02T15:15:25;21.40;1.00
5150;DHT22;2593;52.466;13.436;2022-09-02T15:17:52;21.40;1.00
5150;DHT22;2593;52.466;13.436;2022-09-02T15:20:18;21.30;1.00
5150;DHT22;2593;52.466;13.436;2022-09-02T15:22:46;21.20;1.00
5150;DHT22;2593;52.466;13.436;2022-09-02T15:25:12;21.30;1.00
5150;DHT22;2593;52.466;13.436;2022-09-02T15:27:37;21.40;1.00
5150;DHT22;2593;52.466;13.436;2022-09-02T15:30:05;21.30;1.00
5150;DHT22;2593;52.466;13.436;2022-09-02T15:32:31;21.20;1.00
5150;DHT22;2593;52.466;13.436;2022-09-02T15:34:57;21.00;1.00
5150;DHT22;2593;52.466;13.436;2022-09-02T15:37:23;21.00;1.00
5150;DHT22;2593;52.466;13.436;2022-09-02T15:39:49;20.80;1.00
5150;DHT22;2593;52.466;13.436;2022-09-02T15:42:15;20.90;1.00
5150;DHT22;2593;52.466;13.436;2022-09-02T15:44:42;20.90;1.00
5150;DHT22;2593;52.466;13.436;2022-09-02T15:47:08;20.80;1.00
5150;DHT22;2593;52.466;13.436;2022-09-02T15:49:33;20.90;1.00
5150;DHT22;2593;52.466;13.436;2022-09-02T15:51:59;21.00;1.00
5150;DHT22;2593;52.466;13.436;2022-09-02T15:54:25;21.00;1.00
5150;DHT22;2593;52.466;13.436;2022-09-02T15:56:55;20.90;1.00
5150;DHT22;2593;52.466;13.436;2022-09-02T15:59:21;20.90;1.00
5150;DHT22;2593;52.466;13.436;2022-09-02T16:01:49;20.90;1.00
5150;DHT22;2593;52.466;13.436;2022-09-02T16:04:16;20.80;1.00
5150;DHT22;2593;52.466;13.436;2022-09-02T16:06:44;20.80;1.00
5150;DHT22;2593;52.466;13.436;2022-09-02T16:09:11;20.70;1.00
5150;DHT22;2593;52.466;13.436;2022-09-02T16:11:38;20.70;1.00
5150;DHT22;2593;52.466;13.436;2022-09-02T16:14:05;20.60;1.00
5150;DHT22;2593;52.466;13.436;2022-09-02T16:16:31;20.60;1.00
5150;DHT22;2593;52.466;13.436;2022-09-02T16:18:57;20.50;1.00
5150;DHT22;2593;52.466;13.436;2022-09-02T16:21:23;20.50;1.00
5150;DHT22;2593;52.466;13.436;2022-09-02T16:23:50;20.40;1.00
5150;DHT22;2593;52.466;13.436;2022-09-02T16:26:30;20.30;1.00
5150;DHT22;2593;52.466;13.436;2022-09-02T16:29:01;20.30;1.00
5150;DHT22;2593;52.466;13.436;2022-09-02T16:31:29;20.30;1.00
5150;DHT22;2593;52.466;13.436;2022-09-02T16:34:06;20.30;1.00
5150;DHT22;2593;52.466;13.436;2022-09-02T16:36:36;20.20;1.00
5150;DHT22;2593;52.466;13.436;2022-09-02T16:39:03;20.20;1.00
5150;DHT22;2593;52.466;13.436;2022-09-02T16:41:31;20.30;1.00
5150;DHT22;2593;52.466;13.436;2022-09-02T16:44:09;20.30;1.00
5150;DHT22;2593;52.466;13.436;2022-09-02T16:46:36;20.20;1.00
5150;DHT22;2593;52.466;13.436;2022-09-02T16:49:02;20.20;1.00
5150;DHT22;2593;52.466;13.436;2022-09-02T16:51:28;20.20;1.00
5150;DHT22;2593;52.466;13.436;2022-09-02T16:53:56;20.30;1.00
5150;DHT22;2593;52.466;13.436;2022-09-02T16:56:22;20.30;1.00
5150;DHT22;2593;52.466;13.436;2022-09-02T16:58:49;20.30;1.00
5150;DHT22;2593;52.466;13.436;2022-09-02T17:01:15;20.40;1.00
5150;DHT22;2593;52.466;13.436;2022-09-02T17:03:40;20.50;1.00
5150;DHT22;2593;52.466;13.436;2022-09-02T17:06:07;20.40;1.00
5150;DHT22;2593;52.466;13.436;2022-09-02T17:08:33;20.40;1.00
5150;DHT22;2593;52.466;13.436;2022-09-02T17:11:27;20.30;1.00
5150;DHT22;2593;52.466;13.436;2022-09-02T17:14:16;20.20;1.00
5150;DHT22;2593;52.466;13.436;2022-09-02T17:16:44;20.20;1.00
5150;DHT22;2593;52.466;13.436;2022-09-02T17:19:11;20.10;1.00
5150;DHT22;2593;52.466;13.436;2022-09-02T17:21:45;20.10;1.00
5150;DHT22;2593;52.466;13.436;2022-09-02T17:24:12;20.10;1.00
5150;DHT22;2593;52.466;13.436;2022-09-02T17:26:40;20.00;1.00
5150;DHT22;2593;52.466;13.436;2022-09-02T17:29:08;20.00;1.00
5150;DHT22;2593;52.466;13.436;2022-09-02T17:31:34;20.00;1.00
5150;DHT22;2593;52.466;13.436;2022-09-02T17:34:02;19.90;1.00
5150;DHT22;2593;52.466;13.436;2022-09-02T17:36:30;19.90;1.00
5150;DHT22;2593;52.466;13.436;2022-09-02T17:39:00;19.80;1.00
5150;DHT22;2593;52.466;13.436;2022-09-02T17:41:26;19.80;1.00
5150;DHT22;2593;52.466;13.436;2022-09-02T17:44:11;19.70;1.00
5150;DHT22;2593;52.466;13.436;2022-09-02T17:46:38;19.70;1.00
5150;DHT22;2593;52.466;13.436;2022-09-02T17:49:04;19.60;1.00
5150;DHT22;2593;52.466;13.436;2022-09-02T17:51:30;19.50;1.00
5150;DHT22;2593;52.466;13.436;2022-09-02T17:53:56;19.40;1.00
5150;DHT22;2593;52.466;13.436;2022-09-02T18:10:05;19.20;1.00
5150;DHT22;2593;52.466;13.436;2022-09-02T18:12:32;19.10;1.00
5150;DHT22;2593;52.466;13.436;2022-09-02T18:15:00;19.00;1.00
5150;DHT22;2593;52.466;13.436;2022-09-02T18:17:32;18.90;1.00